Terminal Aerodrome Forecast
Issued by NWS Grand Forks, ND

Home | Current Version | Previous Version | Graphics & Text | Print | Product List | Glossary On
Versions: 1 2 3 4 5 6 7 8 9 10 11 12 13 14 15 16 17 18 19 20 21 22
000
FTUS43 KFGF 251700
TAFFAR
TAF
KFAR 251728Z 2518/2618 VRB06KT P6SM SCT250
     FM252200 20006KT P6SM BKN018
     FM260400 18012G17KT P6SM OVC016
     FM260700 18016G23KT P6SM OVC015
     FM261000 30015G23KT P6SM OVC014=

USA.gov is the U.S. government's official web portal to all federal, state and local government web resources and services.